createdAt,value
2022-12-27T00:00:54.731Z,5.57
2022-12-27T00:02:06.278Z,6.88
2022-12-27T00:03:18.205Z,5.85
2022-12-27T00:04:29.751Z,5.43
2022-12-27T00:05:44.990Z,7.45
2022-12-27T00:06:56.656Z,6.53
2022-12-27T00:08:08.128Z,8.27
2022-12-27T00:09:19.580Z,8.52
2022-12-27T00:10:31.072Z,8.82
2022-12-27T00:11:42.510Z,8.25
2022-12-27T00:12:54.221Z,8.02
2022-12-27T00:14:06.769Z,8.55
2022-12-27T00:15:18.262Z,8.25
2022-12-27T00:16:30.109Z,7.75
2022-12-27T00:17:41.613Z,7.40
2022-12-27T00:18:53.108Z,7.20
2022-12-27T00:20:11.368Z,9.10
2022-12-27T00:21:23.543Z,7.10
2022-12-27T00:22:35.017Z,6.78
2022-12-27T00:23:48.284Z,6.55
2022-12-27T00:24:59.730Z,8.30
2022-12-27T00:26:12.406Z,8.27
2022-12-27T00:27:23.910Z,5.55
2022-12-27T00:28:35.580Z,6.65
2022-12-27T00:29:47.058Z,6.90
2022-12-27T00:30:59.056Z,9.27
2022-12-27T00:32:10.528Z,7.68
2022-12-27T00:33:21.991Z,6.78
2022-12-27T00:34:33.517Z,6.43
2022-12-27T00:35:44.925Z,7.45
2022-12-27T00:36:56.367Z,10.70
2022-12-27T00:38:07.856Z,14.38
2022-12-27T00:39:19.343Z,10.85
2022-12-27T00:40:30.844Z,14.40
2022-12-27T00:41:42.298Z,16.33
2022-12-27T00:42:53.762Z,19.88
2022-12-27T00:44:05.299Z,15.40
2022-12-27T00:45:16.865Z,14.23
2022-12-27T00:46:28.440Z,14.07
2022-12-27T00:47:40.329Z,14.93
2022-12-27T00:48:52.165Z,12.43
2022-12-27T00:50:04.080Z,12.90
2022-12-27T00:51:19.615Z,10.77
2022-12-27T00:52:31.044Z,11.02
2022-12-27T00:53:43.032Z,11.23
2022-12-27T00:54:54.491Z,10.60
2022-12-27T00:56:10.362Z,10.27
2022-12-27T00:57:22.001Z,9.82
2022-12-27T00:58:35.991Z,9.25
2022-12-27T00:59:51.387Z,8.45
2022-12-27T01:01:07.103Z,9.75
2022-12-27T01:02:18.597Z,9.63
2022-12-27T01:03:30.301Z,8.60
2022-12-27T01:04:41.824Z,7.25
2022-12-27T01:05:53.301Z,8.00
2022-12-27T01:07:04.778Z,9.32
2022-12-27T01:08:16.205Z,7.97
2022-12-27T01:09:27.615Z,8.55
2022-12-27T01:10:42.128Z,8.60
2022-12-27T01:11:53.634Z,7.88
2022-12-27T01:13:05.067Z,7.00
2022-12-27T01:14:16.667Z,7.32
2022-12-27T01:15:28.177Z,5.22
2022-12-27T01:16:40.740Z,5.13
2022-12-27T01:17:52.290Z,5.25
2022-12-27T01:19:03.803Z,7.50
2022-12-27T01:20:15.288Z,5.85
2022-12-27T01:21:30.592Z,6.60
2022-12-27T01:22:42.148Z,8.57
2022-12-27T01:23:53.638Z,9.85
2022-12-27T01:25:05.451Z,8.00
2022-12-27T01:26:21.039Z,8.05
2022-12-27T01:27:32.521Z,8.40
2022-12-27T01:28:44.805Z,9.95
2022-12-27T01:29:56.333Z,11.27
2022-12-27T01:31:09.967Z,9.00
2022-12-27T01:32:21.587Z,11.77
2022-12-27T01:33:33.180Z,10.88
2022-12-27T01:34:44.697Z,9.05
2022-12-27T01:35:56.165Z,13.90
2022-12-27T01:37:07.647Z,14.38
2022-12-27T01:38:19.050Z,12.10
2022-12-27T01:39:30.536Z,11.02
2022-12-27T01:40:42.018Z,12.27
2022-12-27T01:42:11.812Z,9.35
2022-12-27T01:43:37.179Z,10.57
2022-12-27T01:44:54.118Z,8.68
2022-12-27T01:46:05.644Z,9.32
2022-12-27T01:47:35.381Z,10.13
2022-12-27T01:48:46.972Z,9.73
2022-12-27T01:50:21.780Z,8.80
2022-12-27T01:51:33.243Z,7.68
2022-12-27T01:52:48.517Z,7.25
2022-12-27T01:53:59.965Z,7.95
2022-12-27T01:55:23.743Z,10.80
2022-12-27T01:56:35.267Z,11.48
2022-12-27T01:57:47.419Z,12.38
2022-12-27T01:59:01.418Z,10.48
2022-12-27T02:00:13.149Z,12.50
2022-12-27T02:01:30.879Z,13.65
2022-12-27T02:02:42.745Z,15.25
2022-12-27T02:03:56.993Z,14.00
2022-12-27T02:05:09.314Z,12.00
2022-12-27T02:06:22.024Z,11.85
2022-12-27T02:07:38.687Z,11.15
2022-12-27T02:08:56.387Z,10.88
2022-12-27T02:10:07.923Z,13.45
2022-12-27T02:11:41.742Z,10.98
2022-12-27T02:12:53.210Z,12.23
2022-12-27T02:14:04.744Z,11.70
2022-12-27T02:15:16.341Z,9.95
2022-12-27T02:16:27.801Z,11.00
2022-12-27T02:17:39.279Z,8.55
2022-12-27T02:18:50.824Z,8.02
2022-12-27T02:20:13.823Z,8.32
2022-12-27T02:21:44.078Z,8.82
2022-12-27T02:23:39.803Z,8.10
2022-12-27T02:24:57.105Z,8.73
2022-12-27T02:26:23.592Z,8.15
2022-12-27T02:27:37.825Z,9.48
2022-12-27T02:29:00.175Z,9.38
2022-12-27T02:30:13.414Z,9.75
2022-12-27T02:31:29.918Z,8.13
2022-12-27T02:32:41.418Z,11.05
2022-12-27T02:33:53.279Z,10.38
2022-12-27T02:35:13.764Z,11.38
2022-12-27T02:36:30.643Z,10.13
2022-12-27T02:37:48.741Z,9.93
2022-12-27T02:39:01.182Z,9.85
2022-12-27T02:40:33.241Z,8.95
2022-12-27T02:42:03.740Z,11.45
2022-12-27T02:43:34.332Z,9.45
2022-12-27T02:45:11.983Z,11.65
2022-12-27T02:46:48.946Z,8.95
2022-12-27T02:48:19.035Z,8.88
2022-12-27T02:49:49.223Z,9.32
2022-12-27T02:51:38.181Z,11.60
2022-12-27T02:53:07.868Z,9.07
2022-12-27T02:54:25.497Z,7.45
2022-12-27T02:56:08.949Z,8.02
2022-12-27T02:57:36.147Z,10.00
2022-12-27T02:58:50.862Z,9.35
2022-12-27T03:00:28.889Z,6.97
2022-12-27T03:02:18.052Z,6.85
2022-12-27T03:03:38.382Z,5.68
2022-12-27T03:05:10.991Z,6.00
2022-12-27T03:06:40.885Z,5.88
2022-12-27T03:07:55.259Z,6.47
2022-12-27T03:09:44.187Z,6.63
2022-12-27T03:11:17.028Z,4.45
2022-12-27T03:13:19.133Z,5.40
2022-12-27T03:14:55.948Z,5.57
2022-12-27T03:16:14.863Z,5.38
2022-12-27T03:17:29.799Z,4.43
2022-12-27T03:18:44.258Z,6.53
2022-12-27T03:20:17.180Z,5.72
2022-12-27T03:21:47.410Z,6.40
2022-12-27T03:23:18.530Z,5.80
2022-12-27T03:24:53.503Z,6.05
2022-12-27T03:26:05.702Z,7.43
2022-12-27T03:27:19.520Z,6.75
2022-12-27T03:28:50.924Z,5.80
2022-12-27T03:30:22.954Z,8.00
2022-12-27T03:31:55.098Z,7.00
2022-12-27T03:33:15.894Z,6.80
2022-12-27T03:34:40.024Z,5.50
2022-12-27T03:36:14.424Z,6.43
2022-12-27T03:37:48.123Z,7.13
2022-12-27T03:39:18.319Z,3.85
2022-12-27T03:40:29.756Z,5.93
2022-12-27T03:42:09.924Z,6.90
2022-12-27T03:43:21.500Z,6.32
2022-12-27T03:44:33.235Z,7.70
2022-12-27T03:46:03.145Z,7.03
2022-12-27T03:47:30.127Z,6.78
2022-12-27T03:48:48.353Z,5.68
2022-12-27T03:50:05.300Z,6.10
2022-12-27T03:51:21.335Z,7.60
2022-12-27T03:52:42.064Z,6.63
2022-12-27T03:53:56.530Z,5.85
2022-12-27T03:55:08.432Z,7.60
2022-12-27T03:56:20.130Z,8.38
2022-12-27T03:57:31.726Z,7.90
2022-12-27T03:58:43.358Z,6.40
2022-12-27T03:59:54.945Z,5.00
2022-12-27T04:01:06.551Z,6.03
2022-12-27T04:02:18.478Z,5.30
2022-12-27T04:03:30.289Z,4.57
2022-12-27T04:04:41.857Z,5.32
2022-12-27T04:05:53.277Z,4.65
2022-12-27T04:07:05.383Z,5.35
2022-12-27T04:08:35.205Z,4.57
2022-12-27T04:10:05.171Z,5.25
2022-12-27T04:11:35.071Z,5.60
2022-12-27T04:13:05.058Z,5.13
2022-12-27T04:14:35.010Z,5.38
2022-12-27T04:16:04.860Z,10.13
2022-12-27T04:17:34.842Z,13.85
2022-12-27T04:19:05.150Z,16.73
2022-12-27T04:20:35.205Z,14.55
2022-12-27T04:22:05.108Z,15.80
2022-12-27T04:23:35.113Z,13.20
2022-12-27T04:25:04.989Z,12.10
2022-12-27T04:26:34.826Z,13.35
2022-12-27T04:28:04.626Z,11.07
2022-12-27T04:29:34.756Z,13.70
2022-12-27T04:31:04.715Z,13.05
2022-12-27T04:32:34.530Z,10.60
2022-12-27T04:34:04.439Z,9.18
2022-12-27T04:35:15.970Z,9.65
2022-12-27T04:36:27.426Z,8.68
2022-12-27T04:37:38.902Z,8.00
2022-12-27T04:38:50.877Z,8.63
2022-12-27T04:40:20.671Z,7.88
2022-12-27T04:41:50.577Z,8.23
2022-12-27T04:43:20.735Z,8.68
2022-12-27T04:44:50.813Z,10.88
2022-12-27T04:46:20.753Z,8.63
2022-12-27T04:47:50.843Z,9.20
2022-12-27T04:49:20.742Z,9.75
2022-12-27T04:50:51.444Z,9.23
2022-12-27T04:52:21.245Z,8.90
2022-12-27T04:53:51.678Z,8.02
2022-12-27T04:55:12.887Z,8.40
2022-12-27T04:56:24.421Z,8.20
2022-12-27T04:57:35.856Z,9.90
2022-12-27T04:59:05.605Z,8.27
2022-12-27T05:00:35.968Z,8.90
2022-12-27T05:02:05.938Z,9.65
2022-12-27T05:03:19.297Z,8.45
2022-12-27T05:04:35.375Z,11.07
2022-12-27T05:05:47.676Z,11.25
2022-12-27T05:07:19.193Z,11.52
2022-12-27T05:08:49.390Z,10.38
2022-12-27T05:10:21.241Z,12.43
2022-12-27T05:11:51.036Z,12.23
2022-12-27T05:13:20.832Z,9.18
2022-12-27T05:14:32.355Z,9.20
2022-12-27T05:15:43.889Z,8.30
2022-12-27T05:16:55.329Z,9.82
2022-12-27T05:18:06.846Z,15.98
2022-12-27T05:19:18.319Z,12.73
2022-12-27T05:20:30.088Z,10.90
2022-12-27T05:22:06.172Z,10.13
2022-12-27T05:23:35.940Z,11.32
2022-12-27T05:25:05.766Z,8.75
2022-12-27T05:26:20.835Z,11.68
2022-12-27T05:27:32.361Z,22.27
2022-12-27T05:28:43.831Z,40.30
2022-12-27T05:29:55.311Z,36.13
2022-12-27T05:31:06.885Z,34.03
2022-12-27T05:32:18.390Z,13.90
2022-12-27T05:33:33.000Z,8.70
2022-12-27T05:34:44.552Z,8.32
2022-12-27T05:35:57.889Z,11.80
2022-12-27T05:37:09.393Z,9.07
2022-12-27T05:38:20.917Z,6.80
2022-12-27T05:39:32.345Z,6.72
2022-12-27T05:40:43.811Z,10.40
2022-12-27T05:41:55.223Z,15.68
2022-12-27T05:43:06.824Z,16.33
2022-12-27T05:44:18.347Z,24.65
2022-12-27T05:45:30.276Z,24.73
2022-12-27T05:46:41.776Z,28.83
2022-12-27T05:47:53.400Z,25.27
2022-12-27T05:49:04.962Z,19.75
2022-12-27T05:50:16.477Z,28.73
2022-12-27T05:51:27.974Z,19.17
2022-12-27T05:52:41.297Z,18.08
2022-12-27T05:53:53.074Z,14.95
2022-12-27T05:55:04.659Z,12.55
2022-12-27T05:56:17.408Z,15.98
2022-12-27T05:57:29.080Z,11.18
2022-12-27T05:58:40.760Z,13.32
2022-12-27T05:59:52.176Z,15.52
2022-12-27T06:01:07.529Z,18.17
2022-12-27T06:02:19.172Z,12.68
2022-12-27T06:03:30.888Z,14.13
2022-12-27T06:04:42.471Z,13.80
2022-12-27T06:05:59.557Z,13.02
2022-12-27T06:07:11.648Z,12.55
2022-12-27T06:08:23.143Z,10.23
2022-12-27T06:09:34.584Z,16.15
2022-12-27T06:10:46.086Z,15.00
2022-12-27T06:11:57.531Z,15.50
2022-12-27T06:13:09.070Z,13.80
2022-12-27T06:14:20.594Z,14.23
2022-12-27T06:15:32.382Z,12.65
2022-12-27T06:16:43.905Z,14.38
2022-12-27T06:17:55.749Z,16.23
2022-12-27T06:19:07.195Z,14.73
2022-12-27T06:20:18.794Z,12.73
2022-12-27T06:21:30.368Z,14.23
2022-12-27T06:22:41.813Z,12.82
2022-12-27T06:23:53.265Z,15.02
2022-12-27T06:25:04.876Z,16.00
2022-12-27T06:26:24.070Z,16.00
2022-12-27T06:27:35.563Z,17.48
2022-12-27T06:28:47.330Z,19.10
2022-12-27T06:29:58.826Z,20.17
2022-12-27T06:31:10.331Z,17.52
2022-12-27T06:32:22.192Z,19.73
2022-12-27T06:33:33.994Z,20.25
2022-12-27T06:34:45.597Z,15.95
2022-12-27T06:35:57.334Z,15.93
2022-12-27T06:37:08.813Z,15.70
2022-12-27T06:38:20.560Z,16.48
2022-12-27T06:39:32.069Z,17.27
2022-12-27T06:40:43.498Z,33.63
2022-12-27T06:41:56.287Z,36.08
2022-12-27T06:43:08.028Z,33.58
2022-12-27T06:44:19.665Z,35.33
2022-12-27T06:45:31.256Z,35.35
2022-12-27T06:46:42.760Z,31.30
2022-12-27T06:47:54.244Z,25.92
2022-12-27T06:49:05.911Z,25.85
2022-12-27T06:50:17.357Z,20.80
2022-12-27T06:51:28.953Z,17.13
2022-12-27T06:52:40.513Z,17.65
2022-12-27T06:53:51.999Z,23.20
2022-12-27T06:55:04.763Z,32.20
2022-12-27T06:56:17.843Z,36.00
2022-12-27T06:57:29.285Z,42.60
2022-12-27T06:58:40.795Z,31.75
2022-12-27T06:59:54.160Z,33.80
2022-12-27T07:01:08.830Z,31.15
2022-12-27T07:02:20.441Z,34.13
2022-12-27T07:03:31.964Z,30.40
2022-12-27T07:04:43.481Z,34.40
2022-12-27T07:05:54.944Z,32.30
2022-12-27T07:07:09.664Z,35.95
2022-12-27T07:08:25.085Z,35.45
2022-12-27T07:09:36.742Z,34.40
2022-12-27T07:10:48.280Z,32.35
2022-12-27T07:11:59.887Z,33.63
2022-12-27T07:13:12.062Z,34.13
2022-12-27T07:14:23.706Z,35.42
2022-12-27T07:15:35.617Z,34.40
2022-12-27T07:16:48.983Z,35.15
2022-12-27T07:18:00.500Z,37.15
2022-12-27T07:19:12.075Z,46.80
2022-12-27T07:20:23.562Z,42.78
2022-12-27T07:21:35.670Z,40.42
2022-12-27T07:22:47.593Z,46.03
2022-12-27T07:23:59.118Z,50.95
2022-12-27T07:25:10.854Z,41.00
2022-12-27T07:26:24.222Z,46.30
2022-12-27T07:27:36.331Z,52.55
2022-12-27T07:28:48.627Z,48.55
2022-12-27T07:30:00.345Z,46.92
2022-12-27T07:31:12.027Z,46.25
2022-12-27T07:32:23.784Z,41.38
2022-12-27T07:33:36.150Z,33.83
2022-12-27T07:34:47.984Z,36.47
2022-12-27T07:36:00.923Z,35.83
2022-12-27T07:37:12.769Z,25.73
2022-12-27T07:38:24.268Z,35.78
2022-12-27T07:39:35.693Z,22.15
2022-12-27T07:40:47.219Z,20.13
2022-12-27T07:42:01.962Z,23.83
2022-12-27T07:43:16.386Z,24.83
2022-12-27T07:44:27.888Z,17.40
2022-12-27T07:45:39.640Z,19.52
2022-12-27T07:46:51.286Z,21.25
2022-12-27T07:48:02.894Z,18.98
2022-12-27T07:49:17.900Z,17.10
2022-12-27T07:50:30.227Z,20.77
2022-12-27T07:51:42.634Z,19.40
2022-12-27T07:52:54.518Z,20.85
2022-12-27T07:54:06.806Z,21.80
2022-12-27T07:55:18.540Z,21.80
2022-12-27T07:56:30.438Z,22.00
2022-12-27T07:57:42.305Z,17.70
2022-12-27T07:58:54.939Z,15.02
2022-12-27T08:00:06.994Z,16.83
2022-12-27T08:01:20.186Z,16.60
2022-12-27T08:02:32.424Z,19.67
2022-12-27T08:03:44.355Z,16.35
2022-12-27T08:04:56.195Z,13.48
2022-12-27T08:06:08.796Z,15.35
2022-12-27T08:07:20.771Z,16.33
2022-12-27T08:08:37.975Z,19.45
2022-12-27T08:09:49.779Z,11.25
2022-12-27T08:11:05.481Z,12.25
2022-12-27T08:12:17.999Z,10.80
2022-12-27T08:13:29.910Z,9.70
2022-12-27T08:14:42.150Z,11.05
2022-12-27T08:15:54.724Z,10.50
2022-12-27T08:17:08.566Z,9.73
2022-12-27T08:18:20.753Z,11.90
2022-12-27T08:19:32.780Z,11.00
2022-12-27T08:20:44.571Z,10.55
2022-12-27T08:21:56.339Z,13.48
2022-12-27T08:23:08.081Z,12.63
2022-12-27T08:24:19.556Z,13.52
2022-12-27T08:25:31.162Z,13.90
2022-12-27T08:26:42.738Z,10.40
2022-12-27T08:28:02.251Z,12.20
2022-12-27T08:29:14.181Z,12.70
2022-12-27T08:30:26.231Z,13.07
2022-12-27T08:31:37.965Z,16.55
2022-12-27T08:32:51.383Z,15.27
2022-12-27T08:34:03.582Z,15.32
2022-12-27T08:35:51.077Z,10.18
2022-12-27T08:36:57.190Z,13.02
2022-12-27T08:38:09.573Z,8.63
2022-12-27T08:39:21.269Z,8.88
2022-12-27T08:40:32.919Z,7.55
2022-12-27T08:41:44.586Z,9.98
2022-12-27T08:42:56.553Z,11.10
2022-12-27T08:44:08.827Z,9.90
2022-12-27T08:45:20.494Z,10.75
2022-12-27T08:46:32.053Z,9.65
2022-12-27T08:47:44.423Z,9.60
2022-12-27T08:48:55.944Z,10.85
2022-12-27T08:50:07.937Z,11.38
2022-12-27T08:51:30.227Z,10.57
2022-12-27T08:52:43.438Z,9.48
2022-12-27T08:53:55.049Z,10.32
2022-12-27T08:55:06.756Z,10.07
2022-12-27T08:56:18.761Z,9.95
2022-12-27T08:57:30.954Z,10.13
2022-12-27T08:58:42.646Z,10.90
2022-12-27T08:59:54.432Z,14.25
2022-12-27T09:01:09.912Z,12.18
2022-12-27T09:02:21.437Z,13.00
2022-12-27T09:03:33.632Z,8.95
2022-12-27T09:04:45.176Z,10.40
2022-12-27T09:06:06.525Z,9.50
2022-12-27T09:07:18.057Z,10.25
2022-12-27T09:08:29.737Z,10.20
2022-12-27T09:09:41.214Z,13.65
2022-12-27T09:10:52.731Z,12.52
2022-12-27T09:12:09.108Z,13.85
2022-12-27T09:13:21.079Z,15.80
2022-12-27T09:14:32.838Z,13.70
2022-12-27T09:15:44.776Z,14.70
2022-12-27T09:16:56.326Z,16.40
2022-12-27T09:18:08.248Z,17.98
2022-12-27T09:19:19.841Z,16.13
2022-12-27T09:20:31.414Z,15.73
2022-12-27T09:21:44.180Z,15.30
2022-12-27T09:22:55.804Z,13.10
2022-12-27T09:24:08.269Z,12.32
2022-12-27T09:25:19.936Z,14.57
2022-12-27T09:26:31.746Z,10.95
2022-12-27T09:27:43.269Z,11.85
2022-12-27T09:28:55.409Z,9.95
2022-12-27T09:30:07.894Z,12.35
2022-12-27T09:31:20.259Z,12.40
2022-12-27T09:32:32.011Z,11.05
2022-12-27T09:33:43.685Z,10.75
2022-12-27T09:34:55.227Z,10.95
2022-12-27T09:36:14.146Z,8.63
2022-12-27T09:37:25.641Z,9.60
2022-12-27T09:38:37.611Z,8.13
2022-12-27T09:39:49.302Z,7.97
2022-12-27T09:41:02.095Z,10.07
2022-12-27T09:42:48.478Z,9.23
2022-12-27T09:43:57.101Z,9.05
2022-12-27T09:45:08.998Z,11.30
2022-12-27T09:46:22.945Z,9.68
2022-12-27T09:47:52.091Z,11.20
2022-12-27T09:49:03.796Z,12.85
2022-12-27T09:50:20.893Z,9.43
2022-12-27T09:51:51.004Z,10.43
2022-12-27T09:53:08.463Z,9.20
2022-12-27T09:54:25.690Z,9.25
2022-12-27T09:55:39.142Z,9.30
2022-12-27T09:58:41.404Z,11.32
2022-12-27T09:59:55.451Z,9.30
2022-12-27T10:01:23.882Z,11.18
2022-12-27T10:02:35.653Z,12.05
2022-12-27T10:03:47.186Z,11.35
2022-12-27T10:06:42.761Z,12.15
2022-12-27T10:07:56.958Z,11.93
2022-12-27T10:09:34.683Z,13.43
2022-12-27T10:10:46.435Z,10.68
2022-12-27T10:12:00.812Z,13.48
2022-12-27T10:13:30.848Z,12.23
2022-12-27T10:15:00.218Z,11.88
2022-12-27T10:16:24.174Z,15.20
2022-12-27T10:17:52.909Z,13.60
2022-12-27T10:19:34.326Z,13.02
2022-12-27T10:20:55.005Z,15.02
2022-12-27T10:22:15.382Z,14.45
2022-12-27T10:23:29.520Z,14.05
2022-12-27T10:24:44.673Z,14.45
2022-12-27T10:26:01.065Z,14.30
2022-12-27T10:27:14.887Z,14.75
2022-12-27T10:28:45.963Z,15.40
2022-12-27T10:29:59.146Z,16.08
2022-12-27T10:31:14.827Z,15.02
2022-12-27T10:32:26.560Z,15.73
2022-12-27T10:33:38.208Z,16.55
2022-12-27T10:35:01.379Z,17.55
2022-12-27T10:36:14.842Z,19.25
2022-12-27T10:37:26.644Z,19.17
2022-12-27T10:38:38.166Z,17.58
2022-12-27T10:39:49.756Z,19.05
2022-12-27T10:41:21.579Z,17.23
2022-12-27T10:42:38.864Z,16.05
2022-12-27T10:43:54.534Z,17.52
2022-12-27T10:45:42.766Z,17.25
2022-12-27T10:46:55.588Z,9.13
2022-12-27T10:48:18.338Z,13.38
2022-12-27T10:49:30.972Z,11.45
2022-12-27T10:50:56.894Z,13.25
2022-12-27T10:52:17.648Z,16.70
2022-12-27T10:53:39.447Z,15.25
2022-12-27T10:54:52.481Z,12.68
2022-12-27T10:56:08.687Z,10.15
2022-12-27T10:57:30.677Z,10.13
2022-12-27T10:58:54.746Z,8.82
2022-12-27T11:00:19.038Z,7.15
2022-12-27T11:01:32.684Z,5.60
2022-12-27T11:02:54.757Z,8.00
2022-12-27T11:04:19.340Z,9.25
2022-12-27T11:05:33.140Z,10.52
2022-12-27T11:06:45.788Z,9.13
2022-12-27T11:07:57.514Z,9.80
2022-12-27T11:09:18.283Z,8.82
2022-12-27T11:10:31.525Z,8.68
2022-12-27T11:11:43.163Z,8.10
2022-12-27T11:12:54.979Z,8.15
2022-12-27T11:14:10.730Z,6.65
2022-12-27T11:15:22.324Z,6.35
2022-12-27T11:16:35.516Z,4.97
2022-12-27T11:17:52.414Z,5.40
2022-12-27T11:19:04.222Z,5.95
2022-12-27T11:20:18.569Z,6.72
2022-12-27T11:21:31.144Z,7.00
2022-12-27T11:22:44.396Z,5.95
2022-12-27T11:23:57.943Z,5.72
2022-12-27T11:25:13.357Z,6.72
2022-12-27T11:26:27.938Z,7.25
2022-12-27T11:27:39.487Z,7.60
2022-12-27T11:28:54.721Z,7.72
2022-12-27T11:30:07.594Z,7.10
2022-12-27T11:31:20.290Z,6.45
2022-12-27T11:32:32.282Z,5.80
2022-12-27T11:33:48.203Z,5.38
2022-12-27T11:34:59.707Z,5.30
2022-12-27T11:36:12.019Z,4.88
2022-12-27T11:37:26.144Z,9.90
2022-12-27T11:38:38.687Z,9.27
2022-12-27T11:39:52.187Z,8.95
2022-12-27T11:41:12.663Z,8.63
2022-12-27T11:42:28.743Z,7.82
2022-12-27T11:44:00.534Z,5.28
2022-12-27T11:45:14.948Z,5.00
2022-12-27T11:46:40.262Z,6.20
2022-12-27T11:47:51.850Z,5.20
2022-12-27T11:49:04.121Z,5.45
2022-12-27T11:50:27.632Z,5.88
2022-12-27T11:52:01.096Z,5.00
2022-12-27T11:53:24.744Z,6.97
2022-12-27T11:54:36.226Z,11.73
2022-12-27T11:56:06.590Z,8.05
2022-12-27T11:57:32.761Z,8.98
2022-12-27T11:58:44.251Z,7.20
2022-12-27T12:00:08.126Z,8.20
2022-12-27T12:01:38.370Z,8.95
2022-12-27T12:02:56.175Z,9.80
2022-12-27T12:04:11.684Z,8.98
2022-12-27T12:05:26.099Z,10.43
2022-12-27T12:06:40.572Z,9.95
2022-12-27T12:07:52.216Z,8.68
2022-12-27T12:09:13.821Z,8.52
2022-12-27T12:10:44.192Z,9.45
2022-12-27T12:11:55.708Z,7.47
2022-12-27T12:13:10.279Z,8.20
2022-12-27T12:14:27.945Z,8.52
2022-12-27T12:15:45.257Z,7.47
2022-12-27T12:16:56.801Z,8.60
2022-12-27T12:18:08.413Z,8.32
2022-12-27T12:19:19.908Z,6.78
2022-12-27T12:20:43.273Z,6.30
2022-12-27T12:22:08.193Z,6.82
2022-12-27T12:23:37.877Z,6.93
2022-12-27T12:25:08.089Z,6.57
2022-12-27T12:26:23.987Z,6.35
2022-12-27T12:27:55.769Z,6.95
2022-12-27T12:29:16.502Z,7.25
2022-12-27T12:30:46.786Z,7.13
2022-12-27T12:32:13.299Z,6.82
2022-12-27T12:33:27.598Z,7.75
2022-12-27T12:34:53.451Z,8.80
2022-12-27T12:36:07.887Z,6.63
2022-12-27T12:37:35.678Z,8.43
2022-12-27T12:38:47.513Z,7.85
2022-12-27T12:40:05.196Z,8.07
2022-12-27T12:41:32.999Z,8.48
2022-12-27T12:42:47.691Z,6.18
2022-12-27T12:44:05.262Z,7.93
2022-12-27T12:45:25.141Z,8.90
2022-12-27T12:46:52.793Z,7.32
2022-12-27T12:48:30.930Z,8.18
2022-12-27T12:49:42.877Z,9.75
2022-12-27T12:50:57.652Z,11.07
2022-12-27T12:52:25.558Z,13.25
2022-12-27T12:53:37.168Z,12.82
2022-12-27T12:55:07.578Z,9.90
2022-12-27T12:56:25.392Z,9.65
2022-12-27T12:57:36.871Z,8.65
2022-12-27T12:59:00.806Z,9.55
2022-12-27T13:00:12.946Z,9.88
2022-12-27T13:01:26.714Z,12.05
2022-12-27T13:02:47.502Z,11.75
2022-12-27T13:04:13.108Z,13.15
2022-12-27T13:05:48.363Z,13.02
2022-12-27T13:07:09.275Z,12.95
2022-12-27T13:08:20.779Z,14.70
2022-12-27T13:09:50.885Z,13.05
2022-12-27T13:11:02.311Z,15.60
2022-12-27T13:12:18.534Z,14.93
2022-12-27T13:13:33.162Z,14.63
2022-12-27T13:14:55.242Z,13.13
2022-12-27T13:16:12.883Z,15.80
2022-12-27T13:17:29.211Z,12.00
2022-12-27T13:19:10.025Z,12.35
2022-12-27T13:20:33.855Z,14.20
2022-12-27T13:22:04.032Z,13.77
2022-12-27T13:23:15.520Z,12.07
2022-12-27T13:24:38.918Z,13.40
2022-12-27T13:26:09.095Z,14.50
2022-12-27T13:27:23.499Z,14.10
2022-12-27T13:28:46.391Z,13.82
2022-12-27T13:30:03.037Z,12.23
2022-12-27T13:31:17.804Z,13.05
2022-12-27T13:32:42.098Z,14.57
2022-12-27T13:33:53.716Z,13.07
2022-12-27T13:35:05.224Z,17.30
2022-12-27T13:36:30.097Z,15.98
2022-12-27T13:37:53.817Z,14.27
2022-12-27T13:39:28.109Z,12.68
2022-12-27T13:40:39.648Z,14.20
2022-12-27T13:42:02.205Z,14.90
2022-12-27T13:43:17.407Z,13.60
2022-12-27T13:44:44.406Z,13.95
2022-12-27T13:45:55.903Z,14.60
2022-12-27T13:47:42.707Z,26.92
2022-12-27T13:49:00.393Z,24.35
2022-12-27T13:50:17.569Z,16.65
2022-12-27T13:51:42.354Z,16.05
2022-12-27T13:53:03.988Z,23.63
2022-12-27T13:54:18.334Z,17.60
2022-12-27T13:55:50.841Z,18.73
2022-12-27T13:57:20.870Z,12.80
2022-12-27T13:58:44.348Z,11.25
2022-12-27T14:00:09.166Z,9.50
2022-12-27T14:01:29.958Z,9.43
2022-12-27T14:03:00.484Z,19.10
2022-12-27T14:04:24.571Z,20.25
2022-12-27T14:05:54.773Z,15.30
2022-12-27T14:07:06.406Z,13.63
2022-12-27T14:08:36.209Z,15.80
2022-12-27T14:09:50.633Z,31.73
2022-12-27T14:11:03.303Z,48.10
2022-12-27T14:12:28.271Z,34.10
2022-12-27T14:13:43.464Z,33.92
2022-12-27T14:14:57.632Z,43.92
2022-12-27T14:16:22.294Z,45.40
2022-12-27T14:17:49.509Z,37.55
2022-12-27T14:19:06.147Z,30.13
2022-12-27T14:20:25.317Z,25.65
2022-12-27T14:21:52.928Z,34.65
2022-12-27T14:23:13.754Z,26.10
2022-12-27T14:24:28.093Z,28.42
2022-12-27T14:25:39.821Z,28.35
2022-12-27T14:27:10.475Z,25.10
2022-12-27T14:28:24.256Z,21.20
2022-12-27T14:29:36.568Z,21.58
2022-12-27T14:30:48.402Z,16.55
2022-12-27T14:32:06.560Z,21.73
2022-12-27T14:33:33.093Z,10.40
2022-12-27T14:34:59.698Z,11.60
2022-12-27T14:36:30.451Z,12.52
2022-12-27T14:38:01.029Z,13.85
2022-12-27T14:39:31.381Z,13.57
2022-12-27T14:41:02.225Z,14.60
2022-12-27T14:42:32.671Z,14.00
2022-12-27T14:43:44.969Z,17.75
2022-12-27T14:44:56.471Z,36.92
2022-12-27T14:46:17.503Z,29.85
2022-12-27T14:47:29.138Z,19.90
2022-12-27T14:48:43.742Z,21.75
2022-12-27T14:50:14.441Z,37.72
2022-12-27T14:51:59.764Z,28.75
2022-12-27T14:53:11.160Z,24.38
2022-12-27T14:54:31.651Z,27.17
2022-12-27T14:55:54.433Z,41.10
2022-12-27T14:57:27.487Z,32.90
2022-12-27T14:59:13.021Z,25.17
2022-12-27T15:00:25.922Z,24.88
2022-12-27T15:01:52.663Z,18.85
2022-12-27T15:03:04.497Z,16.23
2022-12-27T15:04:25.083Z,12.73
2022-12-27T15:05:43.499Z,10.75
2022-12-27T15:07:13.657Z,9.30
2022-12-27T15:08:25.384Z,6.65
2022-12-27T15:10:00.399Z,6.57
2022-12-27T15:11:23.194Z,6.90
2022-12-27T15:12:34.781Z,6.63
2022-12-27T15:13:53.335Z,7.28
2022-12-27T15:15:13.956Z,8.73
2022-12-27T15:16:48.229Z,11.20
2022-12-27T15:18:05.790Z,19.52
2022-12-27T15:19:20.418Z,17.75
2022-12-27T15:20:31.887Z,18.15
2022-12-27T15:22:03.689Z,17.90
2022-12-27T15:23:24.884Z,18.10
2022-12-27T15:24:39.526Z,12.40
2022-12-27T15:26:14.736Z,9.90
2022-12-27T15:27:38.158Z,10.32
2022-12-27T15:29:08.881Z,11.20
2022-12-27T15:30:25.623Z,16.85
2022-12-27T15:31:49.247Z,14.98
2022-12-27T15:33:07.107Z,12.93
2022-12-27T15:34:37.420Z,19.02
2022-12-27T15:35:53.733Z,12.90
2022-12-27T15:37:05.832Z,12.27
2022-12-27T15:38:20.138Z,10.80
2022-12-27T15:39:34.595Z,12.50
2022-12-27T15:40:49.958Z,15.82
2022-12-27T15:42:20.468Z,19.33
2022-12-27T15:43:32.180Z,20.00
2022-12-27T15:44:52.619Z,21.40
2022-12-27T15:46:04.436Z,25.88
2022-12-27T15:47:28.620Z,26.52
2022-12-27T15:49:02.275Z,21.65
2022-12-27T15:50:28.892Z,19.80
2022-12-27T15:51:40.381Z,17.35
2022-12-27T15:52:53.483Z,16.55
2022-12-27T15:54:11.253Z,13.38
2022-12-27T15:55:34.459Z,13.13
2022-12-27T15:56:57.047Z,14.18
2022-12-27T15:58:15.221Z,14.20
2022-12-27T15:59:46.958Z,13.13
2022-12-27T16:01:22.112Z,16.73
2022-12-27T16:02:49.221Z,16.33
2022-12-27T16:04:21.060Z,13.55
2022-12-27T16:05:32.836Z,13.07
2022-12-27T16:06:44.404Z,20.88
2022-12-27T16:07:58.738Z,29.95
2022-12-27T16:09:25.289Z,31.05
2022-12-27T16:10:43.553Z,44.72
2022-12-27T16:12:01.008Z,30.73
2022-12-27T16:13:37.618Z,27.15
2022-12-27T16:15:13.428Z,23.33
2022-12-27T16:16:28.617Z,22.55
2022-12-27T16:17:48.797Z,21.02
2022-12-27T16:19:16.871Z,24.52
2022-12-27T16:20:29.606Z,22.77
2022-12-27T16:21:45.235Z,17.67
2022-12-27T16:22:58.751Z,19.23
2022-12-27T16:24:16.007Z,22.95
2022-12-27T16:25:35.661Z,20.25
2022-12-27T16:26:56.484Z,22.92
2022-12-27T16:28:17.404Z,20.23
2022-12-27T16:29:32.512Z,19.40
2022-12-27T16:30:51.960Z,20.67
2022-12-27T16:32:16.325Z,22.25
2022-12-27T16:33:28.383Z,20.77
2022-12-27T16:34:40.958Z,22.42
2022-12-27T16:36:07.583Z,21.75
2022-12-27T16:37:44.634Z,18.17
2022-12-27T16:39:00.409Z,18.17
2022-12-27T16:40:18.783Z,17.75
2022-12-27T16:41:43.151Z,17.38
2022-12-27T16:42:58.089Z,11.23
2022-12-27T16:44:16.534Z,9.45
2022-12-27T16:45:54.840Z,8.48
2022-12-27T16:47:12.295Z,8.68
2022-12-27T16:48:39.787Z,7.78
2022-12-27T16:50:01.397Z,5.70
2022-12-27T16:51:33.993Z,7.05
2022-12-27T16:52:47.106Z,6.05
2022-12-27T16:54:17.586Z,6.90
2022-12-27T16:55:47.895Z,6.78
2022-12-27T16:57:19.953Z,7.32
2022-12-27T16:58:31.476Z,6.13
2022-12-27T16:59:56.118Z,8.05